createdAt,value
2018-01-28T00:02:09.606Z,5.94
2018-01-28T00:04:38.087Z,5.95
2018-01-28T00:07:06.504Z,5.98
2018-01-28T00:09:34.895Z,6.02
2018-01-28T00:12:03.331Z,6.06
2018-01-28T00:14:31.731Z,6.08
2018-01-28T00:17:00.154Z,6.13
2018-01-28T00:19:28.621Z,6.09
2018-01-28T00:21:57.073Z,6.13
2018-01-28T00:24:25.454Z,6.18
2018-01-28T00:26:53.891Z,6.15
2018-01-28T00:29:22.289Z,6.16
2018-01-28T00:31:50.710Z,6.16
2018-01-28T00:34:19.149Z,6.15
2018-01-28T00:36:47.598Z,6.18
2018-01-28T00:39:15.995Z,6.18
2018-01-28T00:41:44.435Z,6.18
2018-01-28T00:44:12.821Z,6.13
2018-01-28T00:46:41.218Z,6.08
2018-01-28T00:49:09.660Z,6.10
2018-01-28T00:51:38.058Z,6.09
2018-01-28T00:54:06.461Z,6.02
2018-01-28T00:56:34.940Z,6.04
2018-01-28T00:59:03.375Z,6.06
2018-01-28T01:01:31.838Z,6.05
2018-01-28T01:04:00.295Z,6.00
2018-01-28T01:06:28.705Z,5.97
2018-01-28T01:08:57.081Z,5.97
2018-01-28T01:11:25.530Z,5.93
2018-01-28T01:13:53.910Z,5.91
2018-01-28T01:16:22.334Z,5.90
2018-01-28T01:18:50.767Z,5.87
2018-01-28T01:21:19.170Z,5.85
2018-01-28T01:23:47.570Z,5.87
2018-01-28T01:26:16.016Z,5.91
2018-01-28T01:28:44.424Z,5.90
2018-01-28T01:31:12.825Z,5.88
2018-01-28T01:33:41.278Z,5.87
2018-01-28T01:36:09.697Z,5.88
2018-01-28T01:38:38.106Z,5.83
2018-01-28T01:41:06.541Z,5.88
2018-01-28T01:43:34.943Z,5.84
2018-01-28T01:46:03.355Z,5.85
2018-01-28T01:48:31.835Z,5.89
2018-01-28T01:51:00.240Z,5.90
2018-01-28T01:53:28.646Z,5.96
2018-01-28T01:55:57.129Z,5.96
2018-01-28T01:58:25.521Z,5.90
2018-01-28T02:00:53.943Z,5.99
2018-01-28T02:03:22.410Z,5.97
2018-01-28T02:05:50.819Z,5.97
2018-01-28T02:08:19.243Z,5.93
2018-01-28T02:10:47.691Z,6.01
2018-01-28T02:13:16.077Z,6.02
2018-01-28T02:15:44.461Z,6.01
2018-01-28T02:18:12.948Z,6.01
2018-01-28T02:20:41.403Z,6.01
2018-01-28T02:23:09.845Z,6.06
2018-01-28T02:25:38.344Z,6.03
2018-01-28T02:28:06.765Z,6.07
2018-01-28T02:30:35.158Z,6.08
2018-01-28T02:33:03.579Z,6.03
2018-01-28T02:35:31.992Z,6.06
2018-01-28T02:38:00.439Z,6.06
2018-01-28T02:40:28.878Z,6.06
2018-01-28T02:42:57.348Z,6.03
2018-01-28T02:45:25.796Z,6.00
2018-01-28T02:47:54.278Z,5.97
2018-01-28T02:50:22.857Z,5.96
2018-01-28T02:52:51.287Z,5.97
2018-01-28T02:55:19.754Z,5.94
2018-01-28T02:57:48.209Z,5.94
2018-01-28T03:00:16.597Z,5.91
2018-01-28T03:02:45.074Z,5.96
2018-01-28T03:05:13.467Z,5.91
2018-01-28T03:07:41.905Z,5.91
2018-01-28T03:10:10.388Z,5.90
2018-01-28T03:12:38.821Z,5.85
2018-01-28T03:15:07.214Z,5.89
2018-01-28T03:17:35.668Z,5.87
2018-01-28T03:20:04.187Z,5.87
2018-01-28T03:22:32.586Z,5.85
2018-01-28T03:25:01.031Z,5.91
2018-01-28T03:27:29.411Z,5.85
2018-01-28T03:29:57.809Z,5.87
2018-01-28T03:32:26.277Z,5.90
2018-01-28T03:34:54.747Z,5.92
2018-01-28T03:37:23.220Z,5.88
2018-01-28T03:39:51.646Z,5.97
2018-01-28T03:42:20.088Z,5.99
2018-01-28T03:44:48.496Z,6.02
2018-01-28T03:47:17.155Z,6.03
2018-01-28T03:49:45.575Z,6.08
2018-01-28T03:52:13.980Z,6.02
2018-01-28T03:54:42.422Z,6.02
2018-01-28T03:57:10.816Z,6.06
2018-01-28T03:59:39.206Z,6.08
2018-01-28T04:02:07.688Z,6.09
2018-01-28T04:04:36.091Z,6.10
2018-01-28T04:07:04.598Z,6.13
2018-01-28T04:09:33.037Z,6.10
2018-01-28T04:12:01.451Z,6.09
2018-01-28T04:14:29.841Z,6.08
2018-01-28T04:16:58.312Z,6.05
2018-01-28T04:19:26.702Z,6.06
2018-01-28T04:21:55.098Z,6.07
2018-01-28T04:24:23.541Z,6.14
2018-01-28T04:26:51.934Z,6.16
2018-01-28T04:29:20.347Z,6.14
2018-01-28T04:31:48.834Z,6.13
2018-01-28T04:34:17.239Z,6.20
2018-01-28T04:36:45.650Z,6.20
2018-01-28T04:39:14.097Z,6.22
2018-01-28T04:41:42.500Z,6.20
2018-01-28T04:44:10.896Z,6.25
2018-01-28T04:46:39.350Z,6.24
2018-01-28T04:49:07.749Z,6.29
2018-01-28T04:51:36.141Z,6.28
2018-01-28T04:54:04.597Z,6.32
2018-01-28T04:56:32.985Z,6.33
2018-01-28T04:59:01.447Z,6.35
2018-01-28T05:01:30.307Z,6.40
2018-01-28T05:03:58.754Z,6.44
2018-01-28T05:06:27.167Z,6.50
2018-01-28T05:08:55.646Z,6.49
2018-01-28T05:11:24.105Z,6.50
2018-01-28T05:13:52.528Z,6.51
2018-01-28T05:16:20.985Z,6.44
2018-01-28T05:18:49.389Z,6.54
2018-01-28T05:21:18.751Z,6.53
2018-01-28T05:23:47.239Z,6.49
2018-01-28T05:26:15.671Z,6.53
2018-01-28T05:28:44.094Z,6.54
2018-01-28T05:31:12.796Z,6.44
2018-01-28T05:33:41.222Z,6.48
2018-01-28T05:36:09.652Z,6.48
2018-01-28T05:38:38.093Z,6.44
2018-01-28T05:41:06.495Z,6.46
2018-01-28T05:43:34.923Z,6.49
2018-01-28T05:46:03.376Z,6.46
2018-01-28T05:48:31.816Z,6.47
2018-01-28T05:51:00.220Z,6.45
2018-01-28T05:53:28.719Z,6.46
2018-01-28T05:55:57.112Z,6.45
2018-01-28T05:58:25.553Z,6.43
2018-01-28T06:00:54.006Z,6.49
2018-01-28T06:03:22.419Z,6.51
2018-01-28T06:05:50.832Z,6.52
2018-01-28T06:08:19.302Z,6.46
2018-01-28T06:10:47.738Z,6.54
2018-01-28T06:13:16.162Z,6.53
2018-01-28T06:15:44.631Z,6.54
2018-01-28T06:18:13.050Z,6.60
2018-01-28T06:20:41.470Z,6.64
2018-01-28T06:23:10.031Z,6.63
2018-01-28T06:25:38.426Z,6.60
2018-01-28T06:28:06.829Z,6.68
2018-01-28T06:30:35.506Z,6.69
2018-01-28T06:33:03.945Z,6.69
2018-01-28T06:35:32.399Z,6.66
2018-01-28T06:38:00.839Z,6.76
2018-01-28T06:40:29.246Z,6.82
2018-01-28T06:42:57.677Z,6.82
2018-01-28T06:45:26.337Z,6.87
2018-01-28T06:47:54.759Z,6.89
2018-01-28T06:50:23.175Z,6.87
2018-01-28T06:52:51.641Z,6.87
2018-01-28T06:55:20.042Z,6.87
2018-01-28T06:57:48.446Z,6.90
2018-01-28T07:00:16.934Z,6.87
2018-01-28T07:02:45.352Z,6.93
2018-01-28T07:05:13.756Z,6.91
2018-01-28T07:07:42.202Z,6.97
2018-01-28T07:10:10.639Z,7.02
2018-01-28T07:12:39.084Z,7.02
2018-01-28T07:15:07.549Z,7.05
2018-01-28T07:17:35.957Z,7.03
2018-01-28T07:20:04.407Z,7.11
2018-01-28T07:22:32.850Z,7.08
2018-01-28T07:25:01.269Z,7.09
2018-01-28T07:27:29.691Z,7.15
2018-01-28T07:29:58.129Z,7.17
2018-01-28T07:32:26.575Z,7.20
2018-01-28T07:34:55.030Z,7.17
2018-01-28T07:37:23.540Z,7.19
2018-01-28T07:39:51.964Z,7.20
2018-01-28T07:42:20.408Z,7.25
2018-01-28T07:44:48.897Z,7.23
2018-01-28T07:47:17.302Z,7.26
2018-01-28T07:49:45.711Z,7.28
2018-01-28T07:52:14.188Z,7.30
2018-01-28T07:54:42.649Z,7.22
2018-01-28T07:57:11.093Z,7.21
2018-01-28T07:59:39.873Z,7.24
2018-01-28T08:02:08.363Z,7.25
2018-01-28T08:04:36.821Z,7.23
2018-01-28T08:07:05.291Z,7.28
2018-01-28T08:09:33.721Z,7.30
2018-01-28T08:12:13.836Z,7.31
2018-01-28T08:14:42.298Z,7.27
2018-01-28T08:17:10.709Z,7.28
2018-01-28T08:19:39.335Z,7.33
2018-01-28T08:22:07.782Z,7.39
2018-01-28T08:24:36.238Z,7.34
2018-01-28T08:27:14.637Z,7.41
2018-01-28T08:29:43.070Z,7.41
2018-01-28T08:32:11.500Z,7.33
2018-01-28T08:34:40.000Z,7.29
2018-01-28T08:37:08.428Z,7.34
2018-01-28T08:39:36.874Z,7.36
2018-01-28T08:42:05.320Z,7.33
2018-01-28T08:44:33.732Z,7.34
2018-01-28T08:47:02.197Z,7.33
2018-01-28T08:52:05.471Z,7.43
2018-01-28T08:54:33.910Z,7.46
2018-01-28T08:57:02.323Z,7.50
2018-01-28T08:59:30.770Z,7.56
2018-01-28T09:01:59.253Z,7.50
2018-01-28T09:04:27.660Z,7.51
2018-01-28T09:06:56.047Z,7.47
2018-01-28T09:09:24.498Z,7.54
2018-01-28T09:11:52.903Z,7.55
2018-01-28T09:14:21.311Z,7.52
2018-01-28T09:16:49.760Z,7.52
2018-01-28T09:19:18.169Z,7.46
2018-01-28T09:21:46.575Z,7.47
2018-01-28T09:24:15.043Z,7.42
2018-01-28T09:26:43.462Z,7.44
2018-01-28T09:29:11.890Z,7.44
2018-01-28T09:31:40.334Z,7.49
2018-01-28T09:34:08.755Z,7.55
2018-01-28T09:36:37.180Z,7.60
2018-01-28T09:39:05.865Z,7.66
2018-01-28T09:41:34.390Z,7.72
2018-01-28T09:44:02.802Z,7.75
2018-01-28T09:46:31.246Z,7.81
2018-01-28T09:48:59.684Z,7.87
2018-01-28T09:51:28.128Z,7.90
2018-01-28T09:53:56.571Z,7.89
2018-01-28T09:56:25.012Z,7.90
2018-01-28T09:58:53.417Z,7.86
2018-01-28T10:01:21.875Z,7.89
2018-01-28T10:03:50.281Z,7.97
2018-01-28T10:06:18.670Z,7.97
2018-01-28T10:08:47.109Z,7.99
2018-01-28T10:11:15.516Z,8.01
2018-01-28T10:13:43.928Z,8.01
2018-01-28T10:16:12.390Z,8.07
2018-01-28T10:18:40.791Z,8.14
2018-01-28T10:21:09.195Z,8.19
2018-01-28T10:23:37.634Z,8.07
2018-01-28T10:26:06.063Z,8.11
2018-01-28T10:28:34.475Z,8.15
2018-01-28T10:31:02.925Z,8.15
2018-01-28T10:33:31.356Z,8.22
2018-01-28T10:35:59.756Z,8.25
2018-01-28T10:38:28.264Z,8.29
2018-01-28T10:40:56.676Z,8.23
2018-01-28T10:43:25.115Z,8.22
2018-01-28T10:45:53.571Z,8.19
2018-01-28T10:48:21.970Z,8.27
2018-01-28T10:50:51.362Z,8.28
2018-01-28T10:53:20.822Z,8.29
2018-01-28T10:55:49.222Z,8.33
2018-01-28T10:58:17.633Z,8.43
2018-01-28T11:00:46.103Z,8.43
2018-01-28T11:03:14.530Z,8.47
2018-01-28T11:05:42.956Z,8.54
2018-01-28T11:08:11.415Z,8.59
2018-01-28T11:10:39.807Z,8.59
2018-01-28T11:13:08.194Z,8.62
2018-01-28T11:15:36.678Z,8.66
2018-01-28T11:18:05.136Z,8.65
2018-01-28T11:20:33.560Z,8.70
2018-01-28T11:23:02.050Z,8.76
2018-01-28T11:25:30.463Z,8.69
2018-01-28T11:27:58.870Z,8.67
2018-01-28T11:30:27.319Z,8.65
2018-01-28T11:32:55.717Z,8.63
2018-01-28T11:35:24.151Z,8.66
2018-01-28T11:37:52.605Z,8.68
2018-01-28T11:40:21.085Z,8.72
2018-01-28T11:42:49.486Z,8.73
2018-01-28T11:45:17.937Z,8.76
2018-01-28T11:47:46.339Z,8.77
2018-01-28T11:50:14.738Z,8.80
2018-01-28T11:52:43.184Z,8.75
2018-01-28T11:55:11.591Z,8.80
2018-01-28T11:57:40.021Z,8.80
2018-01-28T12:00:08.566Z,8.80
2018-01-28T12:02:37.008Z,8.84
2018-01-28T12:05:05.430Z,8.86
2018-01-28T12:07:33.926Z,8.85
2018-01-28T12:10:02.333Z,8.88
2018-01-28T12:12:30.740Z,8.84
2018-01-28T12:14:59.218Z,8.87
2018-01-28T12:17:27.667Z,8.89
2018-01-28T12:19:56.070Z,8.91
2018-01-28T12:22:24.566Z,8.93
2018-01-28T12:24:53.059Z,8.99
2018-01-28T12:27:21.474Z,8.96
2018-01-28T12:29:49.926Z,8.96
2018-01-28T12:32:18.388Z,9.02
2018-01-28T12:34:46.828Z,9.11
2018-01-28T12:37:15.332Z,9.12
2018-01-28T12:39:43.771Z,9.17
2018-01-28T12:42:12.216Z,9.19
2018-01-28T12:44:40.683Z,9.22
2018-01-28T12:47:09.099Z,9.24
2018-01-28T12:49:37.516Z,9.26
2018-01-28T12:52:06.007Z,9.27
2018-01-28T12:54:34.457Z,9.26
2018-01-28T12:57:02.869Z,9.20
2018-01-28T12:59:31.323Z,9.24
2018-01-28T13:01:59.723Z,9.25
2018-01-28T13:04:28.160Z,9.24
2018-01-28T13:06:56.647Z,9.26
2018-01-28T13:09:25.098Z,9.29
2018-01-28T13:11:53.563Z,9.25
2018-01-28T13:14:22.031Z,9.29
2018-01-28T13:16:50.437Z,9.26
2018-01-28T13:19:18.884Z,9.29
2018-01-28T13:21:47.326Z,9.30
2018-01-28T13:24:15.733Z,9.27
2018-01-28T13:26:44.156Z,9.33
2018-01-28T13:29:12.639Z,9.37
2018-01-28T13:31:41.119Z,9.42
2018-01-28T13:34:09.563Z,9.49
2018-01-28T13:36:38.055Z,9.51
2018-01-28T13:39:06.519Z,9.50
2018-01-28T13:41:34.918Z,9.44
2018-01-28T13:44:03.408Z,9.45
2018-01-28T13:46:31.842Z,9.51
2018-01-28T13:49:00.300Z,9.55
2018-01-28T13:51:28.766Z,9.53
2018-01-28T13:53:57.178Z,9.57
2018-01-28T13:56:25.630Z,9.59
2018-01-28T13:58:54.083Z,9.64
2018-01-28T14:01:22.546Z,9.68
2018-01-28T14:03:50.954Z,9.66
2018-01-28T14:06:19.451Z,9.63
2018-01-28T14:08:47.870Z,9.61
2018-01-28T14:11:16.272Z,9.65
2018-01-28T14:13:44.731Z,9.64
2018-01-28T14:16:13.475Z,9.64
2018-01-28T14:18:41.913Z,9.58
2018-01-28T14:21:10.358Z,9.56
2018-01-28T14:23:38.758Z,9.62
2018-01-28T14:26:07.168Z,9.61
2018-01-28T14:28:35.637Z,9.57
2018-01-28T14:31:04.590Z,9.55
2018-01-28T14:33:33.025Z,9.59
2018-01-28T14:36:01.461Z,9.56
2018-01-28T14:38:29.878Z,9.58
2018-01-28T14:40:58.285Z,9.65
2018-01-28T14:43:26.796Z,9.69
2018-01-28T14:45:55.234Z,9.70
2018-01-28T14:48:23.682Z,9.65
2018-01-28T14:50:52.179Z,9.63
2018-01-28T14:53:20.586Z,9.69
2018-01-28T14:55:49.000Z,9.70
2018-01-28T14:58:17.496Z,9.61
2018-01-28T15:00:45.923Z,9.56
2018-01-28T15:03:14.345Z,9.54
2018-01-28T15:05:42.815Z,9.55
2018-01-28T15:08:11.229Z,9.61
2018-01-28T15:10:39.629Z,9.53
2018-01-28T15:13:08.086Z,9.54
2018-01-28T15:15:36.512Z,9.52
2018-01-28T15:18:04.921Z,9.48
2018-01-28T15:20:33.374Z,9.54
2018-01-28T15:23:01.795Z,9.40
2018-01-28T15:25:30.244Z,9.48
2018-01-28T15:27:58.702Z,9.47
2018-01-28T15:30:27.124Z,9.47
2018-01-28T15:32:55.533Z,9.41
2018-01-28T15:35:24.017Z,9.38
2018-01-28T15:37:52.472Z,9.36
2018-01-28T15:40:20.896Z,9.37
2018-01-28T15:42:49.371Z,9.35
2018-01-28T15:45:17.808Z,9.36
2018-01-28T15:47:46.236Z,9.32
2018-01-28T15:50:14.725Z,9.35
2018-01-28T15:52:43.203Z,9.34
2018-01-28T15:55:11.637Z,9.36
2018-01-28T15:57:40.151Z,9.37
2018-01-28T16:00:08.602Z,9.31
2018-01-28T16:02:37.026Z,9.30
2018-01-28T16:05:05.502Z,9.31
2018-01-28T16:07:33.923Z,9.33
2018-01-28T16:10:02.348Z,9.33
2018-01-28T16:12:31.090Z,9.28
2018-01-28T16:14:59.532Z,9.35
2018-01-28T16:17:28.060Z,9.37
2018-01-28T16:19:56.551Z,9.37
2018-01-28T16:22:24.987Z,9.36
2018-01-28T16:24:53.403Z,9.36
2018-01-28T16:27:21.866Z,9.37
2018-01-28T16:29:50.295Z,9.38
2018-01-28T16:32:18.737Z,9.40
2018-01-28T16:34:47.202Z,9.43
2018-01-28T16:37:15.607Z,9.41
2018-01-28T16:39:44.023Z,9.44
2018-01-28T16:42:12.524Z,9.48
2018-01-28T16:44:40.990Z,9.48
2018-01-28T16:47:09.422Z,9.47
2018-01-28T16:49:37.896Z,9.45
2018-01-28T16:52:06.293Z,9.47
2018-01-28T16:57:09.308Z,9.44
2018-01-28T16:59:37.752Z,9.49
2018-01-28T17:02:06.179Z,9.51
2018-01-28T17:04:34.629Z,9.43
2018-01-28T17:07:03.031Z,9.44
2018-01-28T17:09:31.433Z,9.43
2018-01-28T17:11:59.891Z,9.44
2018-01-28T17:14:28.340Z,9.46
2018-01-28T17:16:56.800Z,9.40
2018-01-28T17:19:25.246Z,9.43
2018-01-28T17:21:53.650Z,9.46
2018-01-28T17:24:22.075Z,9.46
2018-01-28T17:26:50.556Z,9.41
2018-01-28T17:29:19.032Z,9.38
2018-01-28T17:31:47.466Z,9.38
2018-01-28T17:34:15.943Z,9.40
2018-01-28T17:36:44.375Z,9.35
2018-01-28T17:39:13.066Z,9.28
2018-01-28T17:41:41.539Z,9.25
2018-01-28T17:44:09.988Z,9.25
2018-01-28T17:46:38.423Z,9.27
2018-01-28T17:49:06.890Z,9.25
2018-01-28T17:51:35.334Z,9.26
2018-01-28T17:54:03.811Z,9.29
2018-01-28T17:56:32.436Z,9.29
2018-01-28T17:59:00.876Z,9.32
2018-01-28T18:01:29.326Z,9.24
2018-01-28T18:03:57.779Z,9.26
2018-01-28T18:06:26.205Z,9.30
2018-01-28T18:08:54.620Z,9.27
2018-01-28T18:11:23.077Z,9.24
2018-01-28T18:13:51.506Z,9.28
2018-01-28T18:16:20.627Z,9.26
2018-01-28T18:18:49.107Z,9.24
2018-01-28T18:21:17.513Z,9.27
2018-01-28T18:23:45.992Z,9.32
2018-01-28T18:26:14.453Z,9.33
2018-01-28T18:28:42.915Z,9.35
2018-01-28T18:31:11.355Z,9.31
2018-01-28T18:33:39.831Z,9.27
2018-01-28T18:36:08.224Z,9.37
2018-01-28T18:38:36.661Z,9.36
2018-01-28T18:41:05.155Z,9.36
2018-01-28T18:43:33.590Z,9.37
2018-01-28T18:46:02.005Z,9.37
2018-01-28T18:48:30.479Z,9.37
2018-01-28T18:50:58.935Z,9.45
2018-01-28T18:53:27.392Z,9.47
2018-01-28T18:55:55.900Z,9.50
2018-01-28T18:58:24.296Z,9.51
2018-01-28T19:00:52.739Z,9.53
2018-01-28T19:03:21.188Z,9.56
2018-01-28T19:05:49.632Z,9.61
2018-01-28T19:08:18.040Z,9.57
2018-01-28T19:10:46.510Z,9.62
2018-01-28T19:13:14.954Z,9.59
2018-01-28T19:15:43.354Z,9.56
2018-01-28T19:18:11.915Z,9.53
2018-01-28T19:20:40.314Z,9.48
2018-01-28T19:23:08.772Z,9.51
2018-01-28T19:25:37.251Z,9.53
2018-01-28T19:28:05.671Z,9.56
2018-01-28T19:30:34.127Z,9.54
2018-01-28T19:33:02.882Z,9.61
2018-01-28T19:35:31.307Z,9.61
2018-01-28T19:37:59.746Z,9.55
2018-01-28T19:40:28.222Z,9.58
2018-01-28T19:42:56.652Z,9.60
2018-01-28T19:45:25.087Z,9.63
2018-01-28T19:47:53.558Z,9.59
2018-01-28T19:50:22.022Z,9.64
2018-01-28T19:52:50.440Z,9.58
2018-01-28T19:55:18.937Z,9.59
2018-01-28T19:57:47.395Z,9.60
2018-01-28T20:00:15.818Z,9.65
2018-01-28T20:02:44.288Z,9.58
2018-01-28T20:05:12.698Z,9.59
2018-01-28T20:07:41.130Z,9.64
2018-01-28T20:10:10.494Z,9.62
2018-01-28T20:12:38.951Z,9.61
2018-01-28T20:15:07.407Z,9.63
2018-01-28T20:17:35.893Z,9.57
2018-01-28T20:20:04.324Z,9.60
2018-01-28T20:22:32.755Z,9.58
2018-01-28T20:25:01.284Z,9.62
2018-01-28T20:27:29.700Z,9.53
2018-01-28T20:29:58.108Z,9.54
2018-01-28T20:32:26.567Z,9.54
2018-01-28T20:34:54.963Z,9.58
2018-01-28T20:37:23.362Z,9.56
2018-01-28T20:39:51.796Z,9.60
2018-01-28T20:42:20.224Z,9.57
2018-01-28T20:44:48.667Z,9.56
2018-01-28T20:47:17.103Z,9.59
2018-01-28T20:49:45.536Z,9.58
2018-01-28T20:52:13.962Z,9.55
2018-01-28T20:54:42.434Z,9.55
2018-01-28T20:57:10.899Z,9.54
2018-01-28T20:59:39.306Z,9.56
2018-01-28T21:02:07.802Z,9.54
2018-01-28T21:04:36.252Z,9.52
2018-01-28T21:07:04.712Z,9.53
2018-01-28T21:09:33.199Z,9.61
2018-01-28T21:12:01.593Z,9.56
2018-01-28T21:14:30.011Z,9.56
2018-01-28T21:16:58.570Z,9.56
2018-01-28T21:19:26.982Z,9.56
2018-01-28T21:21:55.390Z,9.53
2018-01-28T21:24:23.964Z,9.60
2018-01-28T21:26:52.438Z,9.57
2018-01-28T21:29:20.888Z,9.57
2018-01-28T21:31:49.339Z,9.53
2018-01-28T21:34:17.783Z,9.55
2018-01-28T21:36:46.218Z,9.58
2018-01-28T21:39:14.668Z,9.58
2018-01-28T21:41:43.109Z,9.62
2018-01-28T21:44:11.506Z,9.60
2018-01-28T21:46:39.941Z,9.61
2018-01-28T21:49:08.374Z,9.62
2018-01-28T21:51:36.796Z,9.64
2018-01-28T21:54:05.238Z,9.55
2018-01-28T21:56:33.663Z,9.60
2018-01-28T21:59:02.150Z,9.64
2018-01-28T22:01:30.608Z,9.62
2018-01-28T22:03:59.015Z,9.60
2018-01-28T22:06:27.425Z,9.62
2018-01-28T22:08:55.936Z,9.62
2018-01-28T22:11:24.339Z,9.66
2018-01-28T22:13:52.786Z,9.70
2018-01-28T22:16:21.275Z,9.63
2018-01-28T22:18:49.708Z,9.58
2018-01-28T22:21:18.122Z,9.63
2018-01-28T22:23:46.556Z,9.63
2018-01-28T22:26:14.990Z,9.63
2018-01-28T22:28:43.406Z,9.64
2018-01-28T22:31:11.838Z,9.71
2018-01-28T22:33:40.272Z,9.66
2018-01-28T22:36:08.702Z,9.69
2018-01-28T22:38:37.204Z,9.71
2018-01-28T22:41:05.607Z,9.66
2018-01-28T22:43:34.019Z,9.65
2018-01-28T22:46:02.473Z,9.71
2018-01-28T22:48:30.866Z,9.69
2018-01-28T22:50:59.292Z,9.65
2018-01-28T22:53:27.735Z,9.70
2018-01-28T22:55:56.141Z,9.63
2018-01-28T22:58:24.572Z,9.62
2018-01-28T23:00:53.039Z,9.64
2018-01-28T23:03:21.459Z,9.62
2018-01-28T23:05:49.895Z,9.63
2018-01-28T23:08:18.365Z,9.63
2018-01-28T23:10:46.769Z,9.61
2018-01-28T23:13:15.186Z,9.60
2018-01-28T23:15:43.711Z,9.62
2018-01-28T23:18:12.101Z,9.59
2018-01-28T23:20:40.511Z,9.62
2018-01-28T23:23:09.254Z,9.60
2018-01-28T23:25:37.703Z,9.64
2018-01-28T23:28:06.115Z,9.65
2018-01-28T23:30:34.575Z,9.56
2018-01-28T23:33:03.057Z,9.58
2018-01-28T23:35:31.474Z,9.61
2018-01-28T23:38:00.059Z,9.58
2018-01-28T23:40:28.449Z,9.58
2018-01-28T23:42:56.870Z,9.56
2018-01-28T23:45:25.315Z,9.57
2018-01-28T23:47:53.734Z,9.58
2018-01-28T23:50:22.127Z,9.58
2018-01-28T23:52:50.587Z,9.58
2018-01-28T23:55:19.018Z,9.55
2018-01-28T23:57:47.402Z,9.58
